createdAt,value
2022-11-02T00:00:32.596Z,0.30
2022-11-02T00:03:00.878Z,0.80
2022-11-02T00:05:28.804Z,0.60
2022-11-02T00:07:56.984Z,0.37
2022-11-02T00:10:25.911Z,0.50
2022-11-02T00:12:54.211Z,0.30
2022-11-02T00:15:23.042Z,0.43
2022-11-02T00:17:56.044Z,0.47
2022-11-02T00:20:27.253Z,0.53
2022-11-02T00:22:58.278Z,0.80
2022-11-02T00:25:29.107Z,0.87
2022-11-02T00:28:00.606Z,0.80
2022-11-02T00:30:28.490Z,0.60
2022-11-02T00:32:57.835Z,0.80
2022-11-02T00:35:25.691Z,1.67
2022-11-02T00:37:53.549Z,1.13
2022-11-02T00:40:21.621Z,1.20
2022-11-02T00:43:00.646Z,1.70
2022-11-02T00:45:29.598Z,1.20
2022-11-02T00:47:58.832Z,1.10
2022-11-02T00:50:27.185Z,1.83
2022-11-02T00:56:05.718Z,1.40
2022-11-02T00:58:35.003Z,1.50
2022-11-02T01:01:05.829Z,1.63
2022-11-02T01:03:35.392Z,1.23
2022-11-02T01:06:09.495Z,0.77
2022-11-02T01:08:37.335Z,0.70
2022-11-02T01:11:16.285Z,0.30
2022-11-02T01:13:44.678Z,0.63
2022-11-02T01:16:13.314Z,0.30
2022-11-02T01:18:43.436Z,0.23
2022-11-02T01:21:13.145Z,0.40
2022-11-02T01:23:41.001Z,0.40
2022-11-02T01:26:10.524Z,0.40
2022-11-02T01:28:39.243Z,0.43
2022-11-02T01:31:10.980Z,0.23
2022-11-02T01:33:43.679Z,0.60
2022-11-02T01:36:14.719Z,0.30
2022-11-02T01:38:42.665Z,0.53
2022-11-02T01:41:13.020Z,0.60
2022-11-02T01:43:44.348Z,1.37
2022-11-02T01:46:18.058Z,0.90
2022-11-02T01:48:50.114Z,0.73
2022-11-02T01:51:23.089Z,0.73
2022-11-02T01:53:53.544Z,0.90
2022-11-02T01:56:24.727Z,0.73
2022-11-02T01:58:55.847Z,1.00
2022-11-02T02:01:24.258Z,0.90
2022-11-02T02:03:53.874Z,0.73
2022-11-02T02:06:25.784Z,1.27
2022-11-02T02:08:56.500Z,1.00
2022-11-02T02:11:30.679Z,1.23
2022-11-02T02:14:03.304Z,1.23
2022-11-02T02:16:50.668Z,1.20
2022-11-02T02:19:36.939Z,0.80
2022-11-02T02:22:24.389Z,0.83
2022-11-02T02:25:06.889Z,0.63
2022-11-02T02:27:54.101Z,1.30
2022-11-02T02:30:22.121Z,1.10
2022-11-02T02:32:54.155Z,1.20
2022-11-02T02:35:28.218Z,1.20
2022-11-02T02:37:59.035Z,1.00
2022-11-02T02:40:31.558Z,1.17
2022-11-02T02:43:07.532Z,1.10
2022-11-02T02:45:39.010Z,1.30
2022-11-02T02:48:12.691Z,1.17
2022-11-02T02:50:45.048Z,1.13
2022-11-02T02:53:15.927Z,1.20
2022-11-02T02:55:47.070Z,0.90
2022-11-02T02:58:21.258Z,1.40
2022-11-02T03:00:49.554Z,1.20
2022-11-02T03:03:21.165Z,1.40
2022-11-02T03:06:02.955Z,1.10
2022-11-02T03:08:32.979Z,1.30
2022-11-02T03:11:11.183Z,1.40
2022-11-02T03:13:51.783Z,1.00
2022-11-02T03:16:36.010Z,1.40
2022-11-02T03:19:11.322Z,1.67
2022-11-02T03:21:42.667Z,1.20
2022-11-02T03:24:15.457Z,1.27
2022-11-02T03:26:50.445Z,1.30
2022-11-02T03:29:24.568Z,1.70
2022-11-02T03:32:00.145Z,1.50
2022-11-02T03:34:35.109Z,1.27
2022-11-02T03:39:47.617Z,1.63
2022-11-02T03:42:21.989Z,1.33
2022-11-02T03:44:56.539Z,1.40
2022-11-02T03:47:26.189Z,1.47
2022-11-02T03:49:56.435Z,1.63
2022-11-02T03:52:30.204Z,1.20
2022-11-02T03:55:05.973Z,1.70
2022-11-02T03:57:38.053Z,1.90
2022-11-02T04:00:13.889Z,1.87
2022-11-02T04:02:44.655Z,1.90
2022-11-02T04:05:12.699Z,1.83
2022-11-02T04:08:01.694Z,1.70
2022-11-02T04:10:29.752Z,2.00
2022-11-02T04:13:14.995Z,1.87
2022-11-02T04:15:44.228Z,2.23
2022-11-02T04:18:29.449Z,1.57
2022-11-02T04:20:57.411Z,1.60
2022-11-02T04:23:42.711Z,2.20
2022-11-02T04:26:10.585Z,2.10
2022-11-02T04:28:39.750Z,1.70
2022-11-02T04:31:09.005Z,2.20
2022-11-02T04:33:36.149Z,1.93
2022-11-02T04:36:07.161Z,2.27
2022-11-02T04:38:40.584Z,2.00
2022-11-02T04:41:28.131Z,1.97
2022-11-02T04:43:57.332Z,1.90
2022-11-02T04:46:28.053Z,2.50
2022-11-02T04:48:56.270Z,1.83
2022-11-02T04:51:26.035Z,1.70
2022-11-02T04:53:55.276Z,2.00
2022-11-02T04:56:23.710Z,1.97
2022-11-02T04:58:52.793Z,1.57
2022-11-02T05:01:21.349Z,1.90
2022-11-02T05:03:51.555Z,2.37
2022-11-02T05:06:20.988Z,2.03
2022-11-02T05:08:50.110Z,2.20
2022-11-02T05:11:18.141Z,2.20
2022-11-02T05:13:46.088Z,1.80
2022-11-02T05:16:15.406Z,2.03
2022-11-02T05:18:43.546Z,2.20
2022-11-02T05:21:13.335Z,1.90
2022-11-02T05:23:42.271Z,2.17
2022-11-02T05:26:12.628Z,1.70
2022-11-02T05:28:40.711Z,1.77
2022-11-02T05:31:08.634Z,1.83
2022-11-02T05:33:36.774Z,1.37
2022-11-02T05:36:05.404Z,1.40
2022-11-02T05:38:36.934Z,1.97
2022-11-02T05:41:05.371Z,2.30
2022-11-02T05:43:33.288Z,1.60
2022-11-02T05:46:03.486Z,2.20
2022-11-02T05:48:33.151Z,2.17
2022-11-02T05:51:02.623Z,2.23
2022-11-02T05:53:32.627Z,1.60
2022-11-02T05:56:03.042Z,1.57
2022-11-02T05:58:38.379Z,1.80
2022-11-02T06:01:07.978Z,2.30
2022-11-02T06:03:41.157Z,1.60
2022-11-02T06:06:31.538Z,2.10
2022-11-02T06:09:05.912Z,1.93
2022-11-02T06:11:36.643Z,1.70
2022-11-02T06:14:04.605Z,1.83
2022-11-02T06:16:32.532Z,2.00
2022-11-02T06:19:00.484Z,1.93
2022-11-02T06:21:28.372Z,1.70
2022-11-02T06:23:56.305Z,1.73
2022-11-02T06:26:24.167Z,1.87
2022-11-02T06:28:53.346Z,2.00
2022-11-02T06:31:23.498Z,1.40
2022-11-02T06:33:51.351Z,2.10
2022-11-02T06:36:25.912Z,1.93
2022-11-02T06:38:54.336Z,1.67
2022-11-02T06:41:22.197Z,2.20
2022-11-02T06:43:50.051Z,1.47
2022-11-02T06:46:19.416Z,1.43
2022-11-02T06:48:48.833Z,1.30
2022-11-02T06:51:17.016Z,1.40
2022-11-02T06:53:44.846Z,1.63
2022-11-02T06:56:13.354Z,1.40
2022-11-02T06:58:42.008Z,1.07
2022-11-02T07:01:10.125Z,1.83
2022-11-02T07:03:39.437Z,1.50
2022-11-02T07:06:12.915Z,1.30
2022-11-02T07:08:42.287Z,1.40
2022-11-02T07:11:14.265Z,1.07
2022-11-02T07:13:42.124Z,1.60
2022-11-02T07:16:09.975Z,1.30
2022-11-02T07:18:39.320Z,1.20
2022-11-02T07:21:08.206Z,1.27
2022-11-02T07:23:36.116Z,1.37
2022-11-02T07:26:04.962Z,1.50
2022-11-02T07:28:32.871Z,1.50
2022-11-02T07:31:00.750Z,1.50
2022-11-02T07:33:28.563Z,1.20
2022-11-02T07:35:57.822Z,2.27
2022-11-02T07:38:25.700Z,1.30
2022-11-02T07:40:53.565Z,1.60
2022-11-02T07:43:21.426Z,1.43
2022-11-02T07:45:49.351Z,1.20
2022-11-02T07:48:17.209Z,1.33
2022-11-02T07:50:45.099Z,1.10
2022-11-02T07:53:14.435Z,1.80
2022-11-02T07:55:42.278Z,3.57
2022-11-02T07:58:13.735Z,1.97
2022-11-02T08:00:42.167Z,1.40
2022-11-02T08:03:12.532Z,1.43
2022-11-02T08:05:44.109Z,1.53
2022-11-02T08:08:15.433Z,1.37
2022-11-02T08:10:44.550Z,1.43
2022-11-02T08:13:14.023Z,1.27
2022-11-02T08:15:42.212Z,1.30
2022-11-02T08:18:14.873Z,1.07
2022-11-02T08:20:42.972Z,1.87
2022-11-02T08:23:14.695Z,1.33
2022-11-02T08:25:49.170Z,1.57
2022-11-02T08:28:19.345Z,1.50
2022-11-02T08:30:47.702Z,1.30
2022-11-02T08:33:19.072Z,1.47
2022-11-02T08:35:51.320Z,1.23
2022-11-02T08:38:22.400Z,1.50
2022-11-02T08:40:54.029Z,1.57
2022-11-02T08:43:22.033Z,1.13
2022-11-02T08:48:38.481Z,1.73
2022-11-02T08:51:09.312Z,1.20
2022-11-02T08:53:37.388Z,1.53
2022-11-02T08:56:07.316Z,1.53
2022-11-02T08:58:35.356Z,1.27
2022-11-02T09:01:03.335Z,1.37
2022-11-02T09:03:33.176Z,1.20
2022-11-02T09:06:03.099Z,1.50
2022-11-02T09:08:33.234Z,1.13
2022-11-02T09:11:03.676Z,1.80
2022-11-02T09:13:33.199Z,1.10
2022-11-02T09:16:02.686Z,1.73
2022-11-02T09:18:31.284Z,1.70
2022-11-02T09:21:02.959Z,1.50
2022-11-02T09:23:32.882Z,1.70
2022-11-02T09:26:00.923Z,1.20
2022-11-02T09:28:30.036Z,1.60
2022-11-02T09:31:02.433Z,1.10
2022-11-02T09:33:32.444Z,1.40
2022-11-02T09:36:03.959Z,1.63
2022-11-02T09:38:32.030Z,1.20
2022-11-02T09:41:07.386Z,1.87
2022-11-02T09:43:42.828Z,1.43
2022-11-02T09:46:17.164Z,1.60
2022-11-02T09:48:49.345Z,1.27
2022-11-02T09:51:21.756Z,1.40
2022-11-02T09:53:55.938Z,1.67
2022-11-02T09:56:24.647Z,1.23
2022-11-02T09:58:59.127Z,1.30
2022-11-02T10:01:40.632Z,1.73
2022-11-02T10:04:44.857Z,1.40
2022-11-02T10:07:23.104Z,1.47
2022-11-02T10:09:58.715Z,1.53
2022-11-02T10:12:45.357Z,1.10
2022-11-02T10:15:22.741Z,1.50
2022-11-02T10:18:01.452Z,1.70
2022-11-02T10:20:34.445Z,1.40
2022-11-02T10:23:10.113Z,1.40
2022-11-02T10:25:43.398Z,1.27
2022-11-02T10:28:29.789Z,1.40
2022-11-02T10:31:01.144Z,1.40
2022-11-02T10:33:32.001Z,1.43
2022-11-02T10:36:26.150Z,1.27
2022-11-02T10:39:06.623Z,1.07
2022-11-02T10:41:46.259Z,1.27
2022-11-02T10:44:30.145Z,1.60
2022-11-02T10:47:19.729Z,1.60
2022-11-02T10:50:36.123Z,1.13
2022-11-02T10:56:24.238Z,1.27
2022-11-02T10:59:15.311Z,1.47
2022-11-02T11:01:48.303Z,1.53
2022-11-02T11:08:30.724Z,1.97
2022-11-02T11:11:32.770Z,1.20
2022-11-02T11:20:32.477Z,1.30
2022-11-02T11:23:31.037Z,1.67
2022-11-02T11:28:56.183Z,1.30
2022-11-02T11:31:58.053Z,1.30
2022-11-02T11:37:50.226Z,1.47
2022-11-02T11:40:41.687Z,1.80
2022-11-02T11:43:19.469Z,1.27
2022-11-02T11:46:03.989Z,1.47
2022-11-02T11:48:38.016Z,1.20
2022-11-02T11:51:22.896Z,1.70
2022-11-02T11:54:07.338Z,1.37
2022-11-02T11:56:36.180Z,1.70
2022-11-02T11:59:04.269Z,1.70
2022-11-02T12:01:41.065Z,1.70
2022-11-02T12:04:10.547Z,1.57
2022-11-02T12:06:46.284Z,1.80
2022-11-02T12:09:22.995Z,1.33
2022-11-02T12:11:59.811Z,1.90
2022-11-02T12:14:40.805Z,1.27
2022-11-02T12:17:55.528Z,1.63
2022-11-02T12:20:52.424Z,1.83
2022-11-02T12:23:47.748Z,1.30
2022-11-02T12:26:29.253Z,1.40
2022-11-02T12:29:08.172Z,1.60
2022-11-02T12:31:55.571Z,1.50
2022-11-02T12:34:57.684Z,2.00
2022-11-02T12:38:08.376Z,1.33
2022-11-02T12:40:50.008Z,1.60
2022-11-02T12:43:33.580Z,1.73
2022-11-02T12:46:06.823Z,1.70
2022-11-02T12:48:43.887Z,1.77
2022-11-02T12:51:15.763Z,1.80
2022-11-02T12:53:49.451Z,1.80
2022-11-02T12:56:32.571Z,1.97
2022-11-02T12:59:01.815Z,1.53
2022-11-02T13:01:36.737Z,2.00
2022-11-02T13:04:14.675Z,1.93
2022-11-02T13:06:45.548Z,1.93
2022-11-02T13:09:20.306Z,1.80
2022-11-02T13:11:55.977Z,1.60
2022-11-02T13:14:29.211Z,1.77
2022-11-02T13:17:02.654Z,1.90
2022-11-02T13:19:35.506Z,1.60
2022-11-02T13:22:06.700Z,1.60
2022-11-02T13:24:41.641Z,1.83
2022-11-02T13:27:41.560Z,1.50
2022-11-02T13:30:16.677Z,1.97
2022-11-02T13:32:50.183Z,1.80
2022-11-02T13:35:23.899Z,1.80
2022-11-02T13:37:58.262Z,1.77
2022-11-02T13:40:31.727Z,1.50
2022-11-02T13:43:22.927Z,2.07
2022-11-02T13:46:08.761Z,1.70
2022-11-02T13:48:41.798Z,1.60
2022-11-02T13:51:17.288Z,2.00
2022-11-02T13:53:53.766Z,2.20
2022-11-02T13:56:29.523Z,2.10
2022-11-02T13:59:02.107Z,1.63
2022-11-02T14:01:33.799Z,1.90
2022-11-02T14:04:06.618Z,1.93
2022-11-02T14:06:44.791Z,2.27
2022-11-02T14:09:28.880Z,1.47
2022-11-02T14:15:28.760Z,1.70
2022-11-02T14:18:13.292Z,2.10
2022-11-02T14:20:43.079Z,1.90
2022-11-02T14:23:38.127Z,1.60
2022-11-02T14:26:26.916Z,1.50
2022-11-02T14:28:55.223Z,1.53
2022-11-02T14:31:55.260Z,1.70
2022-11-02T14:34:50.645Z,2.03
2022-11-02T14:37:42.230Z,1.80
2022-11-02T14:40:21.596Z,1.90
2022-11-02T14:43:03.802Z,1.67
2022-11-02T14:45:46.278Z,1.77
2022-11-02T14:48:17.254Z,1.93
2022-11-02T14:51:09.397Z,2.23
2022-11-02T14:53:48.787Z,2.13
2022-11-02T14:56:16.949Z,1.70
2022-11-02T14:58:55.731Z,2.57
2022-11-02T15:01:24.936Z,1.93
2022-11-02T15:03:53.683Z,2.03
2022-11-02T15:06:26.518Z,1.70
2022-11-02T15:08:56.846Z,2.57
2022-11-02T15:11:50.284Z,1.90
2022-11-02T15:14:51.368Z,2.07
2022-11-02T15:17:57.191Z,2.50
2022-11-02T15:20:31.439Z,2.43
2022-11-02T15:23:30.413Z,2.50
2022-11-02T15:26:01.585Z,2.17
2022-11-02T15:28:33.562Z,1.90
2022-11-02T15:31:05.644Z,2.80
2022-11-02T15:33:38.083Z,2.60
2022-11-02T15:36:09.746Z,2.13
2022-11-02T15:38:40.508Z,2.67
2022-11-02T15:41:21.193Z,2.30
2022-11-02T15:44:19.632Z,2.87
2022-11-02T15:46:59.537Z,2.50
2022-11-02T15:49:50.859Z,2.43
2022-11-02T15:52:31.991Z,2.47
2022-11-02T15:55:19.392Z,1.83
2022-11-02T15:57:58.957Z,2.70
2022-11-02T16:00:30.853Z,3.20
2022-11-02T16:03:16.171Z,2.97
2022-11-02T16:05:51.596Z,2.13
2022-11-02T16:08:35.889Z,2.40
2022-11-02T16:11:17.358Z,2.50
2022-11-02T16:14:09.959Z,2.50
2022-11-02T16:16:48.292Z,2.23
2022-11-02T16:19:33.498Z,2.27
2022-11-02T16:22:02.492Z,2.63
2022-11-02T16:24:46.090Z,2.67
2022-11-02T16:27:39.225Z,2.30
2022-11-02T16:30:10.025Z,2.50
2022-11-02T16:32:50.125Z,2.50
2022-11-02T16:35:35.503Z,2.37
2022-11-02T16:38:19.005Z,2.57
2022-11-02T16:40:52.435Z,2.03
2022-11-02T16:43:30.960Z,2.10
2022-11-02T16:46:01.846Z,2.50
2022-11-02T16:48:35.535Z,2.53
2022-11-02T16:51:28.325Z,2.13
2022-11-02T16:53:56.159Z,2.47
2022-11-02T16:56:32.912Z,2.10
2022-11-02T16:59:12.664Z,1.97
2022-11-02T17:01:43.789Z,2.40
2022-11-02T17:04:18.791Z,2.20
2022-11-02T17:06:47.343Z,2.07
2022-11-02T17:09:28.765Z,2.23
2022-11-02T17:12:07.501Z,3.00
2022-11-02T17:14:59.511Z,2.27
2022-11-02T17:17:45.217Z,1.83
2022-11-02T17:23:44.453Z,1.90
2022-11-02T17:26:34.559Z,2.00
2022-11-02T17:29:06.515Z,2.20
2022-11-02T17:31:38.221Z,2.63
2022-11-02T17:34:19.622Z,2.93
2022-11-02T17:36:51.679Z,1.93
2022-11-02T17:39:26.952Z,2.37
2022-11-02T17:42:16.103Z,3.40
2022-11-02T17:44:47.648Z,2.70
2022-11-02T17:47:19.035Z,1.90
2022-11-02T17:50:02.246Z,2.10
2022-11-02T17:52:47.977Z,2.43
2022-11-02T17:55:37.577Z,2.30
2022-11-02T17:58:10.724Z,1.90
2022-11-02T18:00:41.890Z,1.67
2022-11-02T18:03:20.047Z,2.03
2022-11-02T18:05:51.621Z,2.47
2022-11-02T18:08:24.832Z,2.00
2022-11-02T18:10:55.533Z,2.40
2022-11-02T18:13:26.774Z,2.87
2022-11-02T18:15:54.571Z,2.20
2022-11-02T18:18:26.261Z,2.40
2022-11-02T18:20:55.732Z,2.90
2022-11-02T18:23:24.092Z,2.90
2022-11-02T18:25:56.623Z,2.03
2022-11-02T18:28:27.663Z,2.87
2022-11-02T18:30:57.739Z,2.53
2022-11-02T18:33:28.431Z,2.20
2022-11-02T18:36:41.935Z,2.40
2022-11-02T18:39:10.678Z,8.10
2022-11-02T18:42:22.497Z,4.20
2022-11-02T18:44:52.830Z,4.00
2022-11-02T18:47:20.679Z,2.77
2022-11-02T18:49:50.100Z,2.50
2022-11-02T18:52:21.603Z,2.23
2022-11-02T18:54:50.664Z,2.03
2022-11-02T18:57:28.199Z,2.60
2022-11-02T18:59:56.439Z,3.00
2022-11-02T19:02:33.352Z,2.40
2022-11-02T19:05:25.216Z,3.07
2022-11-02T19:08:13.000Z,3.53
2022-11-02T19:10:48.373Z,2.70
2022-11-02T19:13:25.381Z,3.50
2022-11-02T19:15:55.313Z,3.37
2022-11-02T19:18:25.724Z,3.93
2022-11-02T19:21:14.900Z,3.80
2022-11-02T19:23:56.194Z,3.20
2022-11-02T19:26:40.234Z,2.30
2022-11-02T19:29:08.160Z,2.10
2022-11-02T19:31:36.742Z,3.43
2022-11-02T19:34:11.782Z,3.00
2022-11-02T19:36:48.921Z,2.30
2022-11-02T19:39:18.998Z,2.20
2022-11-02T19:42:00.984Z,2.00
2022-11-02T19:44:29.246Z,2.00
2022-11-02T19:47:01.343Z,2.13
2022-11-02T19:49:31.009Z,2.10
2022-11-02T19:52:02.565Z,1.90
2022-11-02T19:54:30.372Z,2.00
2022-11-02T19:57:05.881Z,1.90
2022-11-02T19:59:34.209Z,2.13
2022-11-02T20:02:05.572Z,2.03
2022-11-02T20:04:42.137Z,2.23
2022-11-02T20:07:12.482Z,2.27
2022-11-02T20:09:40.624Z,2.00
2022-11-02T20:12:29.014Z,1.97
2022-11-02T20:15:14.369Z,1.97
2022-11-02T20:18:05.573Z,1.60
2022-11-02T20:20:30.855Z,2.33
2022-11-02T20:23:00.023Z,2.77
2022-11-02T20:25:28.018Z,1.97
2022-11-02T20:27:55.829Z,2.03
2022-11-02T20:30:24.783Z,2.30
2022-11-02T20:32:55.220Z,2.40
2022-11-02T20:35:25.580Z,2.30
2022-11-02T20:37:54.615Z,1.93
2022-11-02T20:40:25.802Z,2.57
2022-11-02T20:42:53.623Z,1.90
2022-11-02T20:45:23.420Z,2.20
2022-11-02T20:47:51.880Z,1.90
2022-11-02T20:50:23.248Z,1.90
2022-11-02T20:53:23.218Z,2.23
2022-11-02T20:55:52.726Z,2.30
2022-11-02T20:58:20.965Z,2.53
2022-11-02T21:00:49.131Z,1.93
2022-11-02T21:03:19.764Z,1.83
2022-11-02T21:05:51.233Z,2.50
2022-11-02T21:08:22.090Z,2.13
2022-11-02T21:11:01.398Z,2.13
2022-11-02T21:13:48.202Z,2.13
2022-11-02T21:16:16.740Z,2.00
2022-11-02T21:18:46.535Z,2.33
2022-11-02T21:21:21.931Z,2.23
2022-11-02T21:23:54.754Z,1.80
2022-11-02T21:26:27.342Z,2.07
2022-11-02T21:29:17.314Z,2.33
2022-11-02T21:31:57.663Z,2.47
2022-11-02T21:34:34.262Z,2.40
2022-11-02T21:37:06.295Z,2.30
2022-11-02T21:39:35.725Z,2.23
2022-11-02T21:42:08.760Z,2.03
2022-11-02T21:45:06.131Z,2.30
2022-11-02T21:47:35.101Z,2.27
2022-11-02T21:50:03.609Z,1.93
2022-11-02T21:52:31.399Z,1.93
2022-11-02T21:54:59.174Z,2.33
2022-11-02T21:57:28.323Z,1.90
2022-11-02T21:59:57.655Z,2.20
2022-11-02T22:02:24.641Z,2.33
2022-11-02T22:04:54.349Z,2.97
2022-11-02T22:07:28.406Z,2.30
2022-11-02T22:10:01.247Z,2.47
2022-11-02T22:12:47.946Z,2.50
2022-11-02T22:15:15.963Z,2.27
2022-11-02T22:17:49.704Z,2.63
2022-11-02T22:20:18.040Z,1.93
2022-11-02T22:22:46.743Z,2.00
2022-11-02T22:25:15.525Z,2.07
2022-11-02T22:27:47.910Z,2.00
2022-11-02T22:30:33.970Z,2.13
2022-11-02T22:33:02.905Z,1.90
2022-11-02T22:38:40.880Z,2.53
2022-11-02T22:41:10.615Z,2.10
2022-11-02T22:43:41.492Z,2.40
2022-11-02T22:46:11.094Z,2.50
2022-11-02T22:48:39.025Z,2.03
2022-11-02T22:51:09.124Z,2.27
2022-11-02T22:53:37.211Z,2.23
2022-11-02T22:56:11.870Z,2.50
2022-11-02T22:58:43.718Z,2.30
2022-11-02T23:01:16.577Z,2.27
2022-11-02T23:03:50.609Z,2.50
2022-11-02T23:06:22.799Z,1.77
2022-11-02T23:08:52.139Z,2.67
2022-11-02T23:11:21.253Z,2.17
2022-11-02T23:13:53.145Z,2.13
2022-11-02T23:16:23.249Z,2.47
2022-11-02T23:19:33.582Z,2.47
2022-11-02T23:22:29.125Z,2.40
2022-11-02T23:25:16.913Z,2.13
2022-11-02T23:28:04.896Z,2.23
2022-11-02T23:30:56.289Z,2.03
2022-11-02T23:33:26.356Z,2.40
2022-11-02T23:36:11.473Z,2.10
2022-11-02T23:39:00.377Z,2.23
2022-11-02T23:41:30.594Z,2.27
2022-11-02T23:44:14.553Z,2.07
2022-11-02T23:46:45.244Z,2.10
2022-11-02T23:49:13.932Z,2.73
2022-11-02T23:52:03.278Z,1.97
2022-11-02T23:54:48.603Z,2.30
2022-11-02T23:57:22.443Z,2.50
2022-11-02T23:59:52.992Z,2.17
